createdAt,value
2023-02-05T00:00:20.248Z,102540.63
2023-02-05T00:02:47.963Z,102548.81
2023-02-05T00:05:15.493Z,102555.78
2023-02-05T00:07:43.190Z,102550.63
2023-02-05T00:10:10.754Z,102555.59
2023-02-05T00:12:38.910Z,102553.94
2023-02-05T00:15:07.147Z,102553.38
2023-02-05T00:17:36.289Z,102560.09
2023-02-05T00:20:05.999Z,102551.28
2023-02-05T00:22:33.690Z,102557.44
2023-02-05T00:25:01.824Z,102555.13
2023-02-05T00:27:29.368Z,102558.53
2023-02-05T00:29:57.064Z,102555.84
2023-02-05T00:32:24.782Z,102554.25
2023-02-05T00:34:52.627Z,102553.41
2023-02-05T00:37:20.269Z,102552.66
2023-02-05T00:39:47.784Z,102562.16
2023-02-05T00:42:15.503Z,102563.13
2023-02-05T00:44:43.294Z,102563.13
2023-02-05T00:47:11.444Z,102563.88
2023-02-05T00:49:39.578Z,102563.16
2023-02-05T00:52:07.560Z,102570.00
2023-02-05T00:54:35.282Z,102569.41
2023-02-05T00:57:03.766Z,102562.47
2023-02-05T00:59:31.457Z,102563.34
2023-02-05T01:01:59.753Z,102563.28
2023-02-05T01:04:27.925Z,102575.47
2023-02-05T01:06:55.529Z,102572.16
2023-02-05T01:09:23.276Z,102573.59
2023-02-05T01:11:50.970Z,102586.03
2023-02-05T01:14:19.073Z,102579.72
2023-02-05T01:16:47.218Z,102578.28
2023-02-05T01:19:14.960Z,102581.78
2023-02-05T01:21:42.967Z,102583.59
2023-02-05T01:24:10.602Z,102583.53
2023-02-05T01:26:39.510Z,102592.13
2023-02-05T01:29:08.882Z,102590.44
2023-02-05T01:31:36.693Z,102589.75
2023-02-05T01:34:04.426Z,102578.78
2023-02-05T01:36:32.065Z,102588.19
2023-02-05T01:38:59.692Z,102585.53
2023-02-05T01:41:27.364Z,102581.91
2023-02-05T01:44:18.526Z,102585.72
2023-02-05T01:46:48.087Z,102583.81
2023-02-05T01:49:30.603Z,102585.72
2023-02-05T01:52:01.884Z,102584.88
2023-02-05T01:54:31.511Z,102584.88
2023-02-05T01:57:06.628Z,102579.75
2023-02-05T01:59:39.104Z,102586.81
2023-02-05T02:02:07.765Z,102586.72
2023-02-05T02:04:40.103Z,102591.13
2023-02-05T02:07:11.118Z,102584.09
2023-02-05T02:09:42.267Z,102585.00
2023-02-05T02:12:14.020Z,102582.59
2023-02-05T02:14:46.904Z,102586.09
2023-02-05T02:17:16.670Z,102589.50
2023-02-05T02:19:53.939Z,102585.00
2023-02-05T02:22:24.580Z,102575.50
2023-02-05T02:24:55.263Z,102582.31
2023-02-05T02:27:40.035Z,102591.13
2023-02-05T02:30:43.024Z,102590.25
2023-02-05T02:33:34.555Z,102593.84
2023-02-05T02:36:17.901Z,102587.94
2023-02-05T02:39:16.891Z,102600.06
2023-02-05T02:42:09.540Z,102588.94
2023-02-05T02:44:48.918Z,102587.28
2023-02-05T02:47:21.427Z,102589.75
2023-02-05T02:50:04.056Z,102589.94
2023-02-05T02:52:38.519Z,102588.88
2023-02-05T02:55:10.084Z,102597.59
2023-02-05T02:57:43.579Z,102596.69
2023-02-05T03:00:25.512Z,102593.34
2023-02-05T03:02:58.531Z,102593.47
2023-02-05T03:05:29.287Z,102601.22
2023-02-05T03:08:06.716Z,102600.44
2023-02-05T03:10:42.833Z,102602.97
2023-02-05T03:13:11.685Z,102604.56
2023-02-05T03:15:45.495Z,102614.91
2023-02-05T03:18:16.274Z,102611.56
2023-02-05T03:21:03.764Z,102599.50
2023-02-05T03:23:32.239Z,102607.50
2023-02-05T03:26:00.519Z,102603.16
2023-02-05T03:28:38.546Z,102595.41
2023-02-05T03:31:18.925Z,102596.25
2023-02-05T03:33:55.655Z,102592.19
2023-02-05T03:36:48.611Z,102601.66
2023-02-05T03:39:46.303Z,102602.50
2023-02-05T03:42:48.603Z,102601.63
2023-02-05T03:45:42.943Z,102595.63
2023-02-05T03:48:26.616Z,102595.75
2023-02-05T03:51:27.344Z,102601.00
2023-02-05T03:54:06.916Z,102600.13
2023-02-05T03:56:43.122Z,102608.03
2023-02-05T03:59:14.370Z,102605.34
2023-02-05T04:01:44.889Z,102606.22
2023-02-05T04:04:14.965Z,102602.75
2023-02-05T04:06:43.117Z,102606.31
2023-02-05T04:09:11.273Z,102605.44
2023-02-05T04:11:39.846Z,102606.22
2023-02-05T04:14:08.072Z,102610.53
2023-02-05T04:16:37.632Z,102602.88
2023-02-05T04:19:05.343Z,102598.53
2023-02-05T04:21:33.457Z,102598.50
2023-02-05T04:24:01.520Z,102602.72
2023-02-05T04:26:29.624Z,102604.56
2023-02-05T04:29:05.065Z,102611.63
2023-02-05T04:31:38.056Z,102611.53
2023-02-05T04:34:06.210Z,102608.91
2023-02-05T04:36:34.856Z,102615.06
2023-02-05T04:39:03.410Z,102612.41
2023-02-05T04:41:31.223Z,102611.56
2023-02-05T04:43:59.136Z,102611.63
2023-02-05T04:46:27.398Z,102606.44
2023-02-05T04:48:55.636Z,102613.38
2023-02-05T04:51:23.378Z,102620.31
2023-02-05T04:53:51.150Z,102614.34
2023-02-05T04:56:18.796Z,102610.88
2023-02-05T04:58:47.159Z,102610.00
2023-02-05T05:01:21.299Z,102609.03
2023-02-05T05:03:50.664Z,102607.25
2023-02-05T05:06:19.442Z,102607.34
2023-02-05T05:08:47.139Z,102614.22
2023-02-05T05:11:17.579Z,102606.41
2023-02-05T05:13:47.258Z,102604.72
2023-02-05T05:16:15.773Z,102611.72
2023-02-05T05:18:43.846Z,102607.28
2023-02-05T05:21:12.007Z,102612.56
2023-02-05T05:23:39.729Z,102626.44
2023-02-05T05:26:11.022Z,102618.56
2023-02-05T05:28:39.812Z,102625.47
2023-02-05T05:31:19.959Z,102616.84
2023-02-05T05:33:48.189Z,102629.72
2023-02-05T05:36:16.667Z,102636.75
2023-02-05T05:38:44.570Z,102634.19
2023-02-05T05:41:39.754Z,102635.91
2023-02-05T05:44:08.103Z,102635.97
2023-02-05T05:46:36.656Z,102630.91
2023-02-05T05:49:04.298Z,102639.53
2023-02-05T05:51:32.811Z,102639.53
2023-02-05T05:54:00.823Z,102635.16
2023-02-05T05:56:28.638Z,102636.09
2023-02-05T05:58:56.464Z,102637.88
2023-02-05T06:01:24.087Z,102632.66
2023-02-05T06:03:51.723Z,102614.44
2023-02-05T06:06:19.471Z,102621.50
2023-02-05T06:08:47.614Z,102623.31
2023-02-05T06:11:15.208Z,102615.59
2023-02-05T06:13:42.775Z,102620.84
2023-02-05T06:16:10.995Z,102624.28
2023-02-05T06:18:38.661Z,102627.72
2023-02-05T06:21:06.323Z,102631.97
2023-02-05T06:23:34.365Z,102630.31
2023-02-05T06:26:02.016Z,102627.66
2023-02-05T06:28:30.004Z,102622.44
2023-02-05T06:30:57.868Z,102637.06
2023-02-05T06:33:26.141Z,102643.22
2023-02-05T06:35:54.721Z,102644.03
2023-02-05T06:38:22.707Z,102645.81
2023-02-05T06:40:50.893Z,102651.00
2023-02-05T06:43:18.651Z,102652.63
2023-02-05T06:45:46.370Z,102652.63
2023-02-05T06:48:14.782Z,102653.34
2023-02-05T06:50:42.759Z,102652.47
2023-02-05T06:53:11.916Z,102658.50
2023-02-05T06:55:40.284Z,102673.16
2023-02-05T06:58:08.471Z,102668.72
2023-02-05T07:00:36.909Z,102655.59
2023-02-05T07:03:04.640Z,102670.31
2023-02-05T07:05:34.844Z,102666.63
2023-02-05T07:08:04.189Z,102678.72
2023-02-05T07:10:32.129Z,102676.78
2023-02-05T07:12:59.663Z,102680.38
2023-02-05T07:15:27.553Z,102668.97
2023-02-05T07:17:55.184Z,102674.34
2023-02-05T07:20:23.325Z,102662.94
2023-02-05T07:22:50.903Z,102670.50
2023-02-05T07:25:19.432Z,102681.69
2023-02-05T07:27:47.164Z,102693.53
2023-02-05T07:30:15.315Z,102703.72
2023-02-05T07:32:42.940Z,102695.56
2023-02-05T07:35:11.095Z,102696.81
2023-02-05T07:37:39.534Z,102695.72
2023-02-05T07:40:07.973Z,102692.41
2023-02-05T07:42:36.070Z,102705.09
2023-02-05T07:45:05.280Z,102705.94
2023-02-05T07:47:33.309Z,102706.25
2023-02-05T07:50:01.086Z,102704.19
2023-02-05T07:52:29.305Z,102711.00
2023-02-05T07:54:57.045Z,102708.25
2023-02-05T07:57:26.721Z,102712.09
2023-02-05T07:59:55.061Z,102715.16
2023-02-05T08:02:22.742Z,102722.28
2023-02-05T08:04:50.850Z,102726.47
2023-02-05T08:07:18.570Z,102719.53
2023-02-05T08:09:46.783Z,102721.63
2023-02-05T08:12:14.411Z,102732.03
2023-02-05T08:14:44.448Z,102727.53
2023-02-05T08:17:12.316Z,102736.75
2023-02-05T08:19:40.297Z,102739.81
2023-02-05T08:22:08.302Z,102731.22
2023-02-05T08:24:35.943Z,102724.34
2023-02-05T08:27:03.730Z,102731.44
2023-02-05T08:29:31.427Z,102732.16
2023-02-05T08:31:59.155Z,102734.97
2023-02-05T08:34:27.201Z,102752.28
2023-02-05T08:36:54.896Z,102733.34
2023-02-05T08:39:22.429Z,102740.66
2023-02-05T08:41:50.021Z,102731.91
2023-02-05T08:44:18.060Z,102738.09
2023-02-05T08:46:50.106Z,102735.03
2023-02-05T08:49:18.359Z,102723.03
2023-02-05T08:51:47.019Z,102739.97
2023-02-05T08:54:15.744Z,102739.53
2023-02-05T08:56:45.391Z,102738.75
2023-02-05T08:59:13.057Z,102737.47
2023-02-05T09:01:43.125Z,102740.00
2023-02-05T09:04:15.854Z,102750.47
2023-02-05T09:06:44.229Z,102753.34
2023-02-05T09:09:13.793Z,102747.59
2023-02-05T09:11:42.432Z,102749.53
2023-02-05T09:14:10.541Z,102755.06
2023-02-05T09:16:38.817Z,102748.00
2023-02-05T09:19:06.443Z,102748.94
2023-02-05T09:21:34.968Z,102753.53
2023-02-05T09:24:02.703Z,102746.53
2023-02-05T09:26:31.073Z,102751.88
2023-02-05T09:28:58.850Z,102750.72
2023-02-05T09:31:27.109Z,102755.44
2023-02-05T09:33:55.896Z,102759.00
2023-02-05T09:36:24.375Z,102743.25
2023-02-05T09:39:04.980Z,102757.63
2023-02-05T09:42:00.994Z,102759.88
2023-02-05T09:44:54.472Z,102764.03
2023-02-05T09:47:35.643Z,102761.06
2023-02-05T09:50:25.698Z,102754.06
2023-02-05T09:52:59.749Z,102762.09
2023-02-05T09:55:34.493Z,102766.56
2023-02-05T09:58:08.193Z,102774.66
2023-02-05T10:01:07.240Z,102769.16
2023-02-05T10:03:40.748Z,102757.28
2023-02-05T10:06:22.114Z,102766.06
2023-02-05T10:09:11.602Z,102770.22
2023-02-05T10:11:45.086Z,102756.06
2023-02-05T10:14:30.410Z,102763.69
2023-02-05T10:17:16.275Z,102768.75
2023-02-05T10:20:07.260Z,102769.00
2023-02-05T10:22:40.739Z,102764.47
2023-02-05T10:25:26.355Z,102764.50
2023-02-05T10:28:18.261Z,102756.63
2023-02-05T10:30:51.556Z,102753.13
2023-02-05T10:33:36.015Z,102764.72
2023-02-05T10:36:06.947Z,102773.84
2023-02-05T10:38:42.044Z,102770.75
2023-02-05T10:41:43.348Z,102770.56
2023-02-05T10:44:30.765Z,102760.72
2023-02-05T10:47:07.250Z,102770.47
2023-02-05T10:49:56.190Z,102770.81
2023-02-05T10:52:24.319Z,102761.50
2023-02-05T10:54:51.986Z,102748.41
2023-02-05T10:57:22.143Z,102752.34
2023-02-05T10:59:56.526Z,102741.78
2023-02-05T11:02:38.088Z,102736.56
2023-02-05T11:05:21.382Z,102737.91
2023-02-05T11:07:51.795Z,102735.25
2023-02-05T11:10:26.300Z,102730.28
2023-02-05T11:13:16.907Z,102730.19
2023-02-05T11:16:01.073Z,102731.88
2023-02-05T11:18:49.593Z,102724.88
2023-02-05T11:21:17.382Z,102709.13
2023-02-05T11:23:56.905Z,102707.63
2023-02-05T11:26:28.608Z,102712.22
2023-02-05T11:28:56.225Z,102709.19
2023-02-05T11:31:27.570Z,102713.78
2023-02-05T11:34:08.142Z,102718.81
2023-02-05T11:36:54.103Z,102704.16
2023-02-05T11:39:36.615Z,102704.13
2023-02-05T11:42:09.812Z,102699.13
2023-02-05T11:44:48.392Z,102688.22
2023-02-05T11:47:27.967Z,102682.22
2023-02-05T11:49:57.028Z,102678.31
2023-02-05T11:52:30.417Z,102682.44
2023-02-05T11:54:58.220Z,102692.50
2023-02-05T11:57:35.569Z,102677.72
2023-02-05T12:00:09.772Z,102669.88
2023-02-05T12:02:39.094Z,102672.41
2023-02-05T12:05:12.343Z,102658.03
2023-02-05T12:07:50.581Z,102649.41
2023-02-05T12:10:33.890Z,102646.69
2023-02-05T12:13:08.320Z,102637.91
2023-02-05T12:16:12.825Z,102641.94
2023-02-05T12:18:54.749Z,102638.25
2023-02-05T12:21:37.360Z,102631.00
2023-02-05T12:24:07.736Z,102622.34
2023-02-05T12:26:44.599Z,102614.66
2023-02-05T12:29:49.457Z,102614.84
2023-02-05T12:32:37.080Z,102600.97
2023-02-05T12:35:21.952Z,102596.78
2023-02-05T12:38:31.552Z,102589.53
2023-02-05T12:41:29.137Z,102595.66
2023-02-05T12:44:33.526Z,102594.84
2023-02-05T12:47:41.804Z,102606.75
2023-02-05T12:50:32.228Z,102604.59
2023-02-05T12:53:15.531Z,102614.38
2023-02-05T12:56:04.989Z,102613.53
2023-02-05T12:58:38.602Z,102601.88
2023-02-05T13:01:15.025Z,102588.75
2023-02-05T13:03:49.086Z,102595.72
2023-02-05T13:06:49.079Z,102589.84
2023-02-05T13:09:22.999Z,102588.94
2023-02-05T13:11:53.455Z,102588.81
2023-02-05T13:14:26.216Z,102595.19
2023-02-05T13:17:15.711Z,102594.94
2023-02-05T13:19:51.850Z,102600.03
2023-02-05T13:22:46.845Z,102595.63
2023-02-05T13:25:44.818Z,102595.81
2023-02-05T13:28:42.425Z,102589.16
2023-02-05T13:31:28.168Z,102589.94
2023-02-05T13:34:01.544Z,102575.47
2023-02-05T13:36:51.221Z,102585.03
2023-02-05T13:39:54.469Z,102597.38
2023-02-05T13:42:28.815Z,102586.47
2023-02-05T13:45:31.183Z,102575.44
2023-02-05T13:48:33.968Z,102578.59
2023-02-05T13:51:13.420Z,102569.75
2023-02-05T13:54:17.260Z,102573.41
2023-02-05T13:57:12.058Z,102576.81
2023-02-05T13:59:43.542Z,102581.00
2023-02-05T14:02:33.468Z,102580.41
2023-02-05T14:05:03.258Z,102597.16
2023-02-05T14:07:47.244Z,102596.78
2023-02-05T14:10:39.411Z,102602.09
2023-02-05T14:13:31.208Z,102576.75
2023-02-05T14:16:25.510Z,102574.66
2023-02-05T14:19:01.848Z,102558.06
2023-02-05T14:21:32.511Z,102568.34
2023-02-05T14:24:15.667Z,102559.59
2023-02-05T14:26:52.015Z,102571.69
2023-02-05T14:29:48.196Z,102582.44
2023-02-05T14:32:29.024Z,102580.28
2023-02-05T14:35:00.062Z,102580.47
2023-02-05T14:37:37.601Z,102578.66
2023-02-05T14:40:35.913Z,102585.38
2023-02-05T14:43:24.578Z,102584.19
2023-02-05T14:45:53.308Z,102586.28
2023-02-05T14:48:27.504Z,102590.81
2023-02-05T14:51:06.491Z,102591.06
2023-02-05T14:53:37.433Z,102587.34
2023-02-05T14:56:06.003Z,102585.50
2023-02-05T14:58:40.931Z,102586.59
2023-02-05T15:01:34.075Z,102592.06
2023-02-05T15:04:04.112Z,102598.09
2023-02-05T15:06:41.038Z,102602.63
2023-02-05T15:09:24.441Z,102597.44
2023-02-05T15:12:22.454Z,102596.66
2023-02-05T15:14:56.612Z,102594.88
2023-02-05T15:17:30.739Z,102590.22
2023-02-05T15:20:05.369Z,102597.13
2023-02-05T15:22:51.516Z,102604.03
2023-02-05T15:25:27.857Z,102600.28
2023-02-05T15:28:07.484Z,102604.19
2023-02-05T15:31:26.298Z,102590.47
2023-02-05T15:34:16.889Z,102588.91
2023-02-05T15:36:51.117Z,102586.44
2023-02-05T15:39:30.860Z,102583.16
2023-02-05T15:42:02.154Z,102580.75
2023-02-05T15:44:32.913Z,102591.88
2023-02-05T15:47:22.511Z,102584.56
2023-02-05T15:49:54.842Z,102590.22
2023-02-05T15:52:27.970Z,102581.72
2023-02-05T15:55:08.516Z,102583.13
2023-02-05T15:57:36.380Z,102586.38
2023-02-05T16:00:07.778Z,102589.28
2023-02-05T16:02:39.991Z,102586.94
2023-02-05T16:05:19.548Z,102588.41
2023-02-05T16:07:51.937Z,102593.53
2023-02-05T16:10:23.326Z,102590.94
2023-02-05T16:13:18.434Z,102600.44
2023-02-05T16:15:55.850Z,102597.97
2023-02-05T16:18:32.741Z,102594.03
2023-02-05T16:21:13.578Z,102596.03
2023-02-05T16:23:55.050Z,102602.44
2023-02-05T16:26:28.936Z,102600.72
2023-02-05T16:28:58.539Z,102608.94
2023-02-05T16:31:28.982Z,102614.41
2023-02-05T16:34:04.238Z,102616.81
2023-02-05T16:36:37.163Z,102622.31
2023-02-05T16:39:17.230Z,102638.06
2023-02-05T16:41:45.997Z,102646.44
2023-02-05T16:44:31.926Z,102655.19
2023-02-05T16:47:06.159Z,102643.09
2023-02-05T16:49:33.934Z,102639.59
2023-02-05T16:52:01.732Z,102647.16
2023-02-05T16:54:38.850Z,102653.41
2023-02-05T16:57:17.049Z,102647.63
2023-02-05T16:59:50.717Z,102653.78
2023-02-05T17:02:23.400Z,102646.88
2023-02-05T17:04:53.901Z,102669.41
2023-02-05T17:07:22.975Z,102663.22
2023-02-05T17:09:51.347Z,102668.56
2023-02-05T17:12:20.532Z,102656.38
2023-02-05T17:14:57.298Z,102658.00
2023-02-05T17:17:26.945Z,102648.47
2023-02-05T17:20:09.847Z,102664.31
2023-02-05T17:22:38.002Z,102664.13
2023-02-05T17:25:06.221Z,102675.69
2023-02-05T17:27:38.305Z,102675.03
2023-02-05T17:30:15.720Z,102680.59
2023-02-05T17:32:46.849Z,102680.94
2023-02-05T17:35:16.084Z,102682.34
2023-02-05T17:37:43.723Z,102680.28
2023-02-05T17:40:15.479Z,102700.38
2023-02-05T17:42:45.341Z,102692.28
2023-02-05T17:45:19.664Z,102702.13
2023-02-05T17:47:48.128Z,102708.19
2023-02-05T17:50:16.942Z,102704.25
2023-02-05T17:52:45.308Z,102707.78
2023-02-05T17:55:18.214Z,102715.41
2023-02-05T17:57:46.529Z,102712.78
2023-02-05T18:00:18.295Z,102701.50
2023-02-05T18:02:46.239Z,102706.13
2023-02-05T18:05:14.525Z,102703.56
2023-02-05T18:07:51.444Z,102711.00
2023-02-05T18:10:25.100Z,102707.56
2023-02-05T18:12:53.937Z,102714.59
2023-02-05T18:15:22.988Z,102708.63
2023-02-05T18:17:50.571Z,102705.88
2023-02-05T18:20:20.956Z,102714.78
2023-02-05T18:22:49.386Z,102712.00
2023-02-05T18:25:17.893Z,102716.22
2023-02-05T18:27:46.842Z,102713.00
2023-02-05T18:30:15.221Z,102717.56
2023-02-05T18:32:42.692Z,102713.16
2023-02-05T18:35:14.568Z,102719.88
2023-02-05T18:37:43.225Z,102716.53
2023-02-05T18:40:13.823Z,102717.28
2023-02-05T18:42:42.221Z,102713.97
2023-02-05T18:45:10.418Z,102720.81
2023-02-05T18:47:37.955Z,102720.72
2023-02-05T18:50:08.768Z,102721.75
2023-02-05T18:52:37.641Z,102725.16
2023-02-05T18:55:05.769Z,102721.22
2023-02-05T18:57:33.927Z,102721.94
2023-02-05T19:00:01.562Z,102730.59
2023-02-05T19:02:29.181Z,102728.72
2023-02-05T19:04:56.869Z,102737.41
2023-02-05T19:07:25.007Z,102735.75
2023-02-05T19:09:53.571Z,102740.81
2023-02-05T19:12:21.649Z,102746.94
2023-02-05T19:14:50.046Z,102746.88
2023-02-05T19:17:20.107Z,102758.38
2023-02-05T19:19:49.882Z,102750.63
2023-02-05T19:22:17.689Z,102767.28
2023-02-05T19:24:45.795Z,102765.72
2023-02-05T19:27:14.485Z,102763.69
2023-02-05T19:29:42.005Z,102761.97
2023-02-05T19:32:09.965Z,102767.13
2023-02-05T19:34:40.561Z,102765.53
2023-02-05T19:37:09.579Z,102768.00
2023-02-05T19:39:38.954Z,102765.44
2023-02-05T19:42:07.221Z,102765.41
2023-02-05T19:44:34.950Z,102757.78
2023-02-05T19:47:03.015Z,102758.53
2023-02-05T19:49:30.524Z,102766.41
2023-02-05T19:51:59.641Z,102763.56
2023-02-05T19:54:29.691Z,102762.59
2023-02-05T19:56:57.681Z,102769.59
2023-02-05T19:59:25.809Z,102768.84
2023-02-05T20:01:54.042Z,102768.97
2023-02-05T20:04:24.992Z,102767.09
2023-02-05T20:06:58.719Z,102763.38
2023-02-05T20:09:28.044Z,102772.00
2023-02-05T20:11:57.580Z,102773.63
2023-02-05T20:14:28.542Z,102768.50
2023-02-05T20:16:56.472Z,102776.53
2023-02-05T20:19:25.024Z,102772.34
2023-02-05T20:21:53.589Z,102782.03
2023-02-05T20:24:23.159Z,102772.59
2023-02-05T20:26:53.122Z,102775.84
2023-02-05T20:29:40.515Z,102783.66
2023-02-05T20:32:09.941Z,102778.41
2023-02-05T20:34:40.740Z,102780.88
2023-02-05T20:37:09.622Z,102784.63
2023-02-05T20:39:41.946Z,102787.00
2023-02-05T20:42:14.127Z,102791.50
2023-02-05T20:44:43.135Z,102793.38
2023-02-05T20:47:14.658Z,102787.28
2023-02-05T20:49:45.828Z,102794.38
2023-02-05T20:52:14.176Z,102798.66
2023-02-05T20:54:42.490Z,102806.38
2023-02-05T20:57:10.725Z,102804.38
2023-02-05T20:59:40.809Z,102805.91
2023-02-05T21:02:13.739Z,102808.78
2023-02-05T21:04:42.882Z,102811.56
2023-02-05T21:07:10.783Z,102808.94
2023-02-05T21:09:39.790Z,102807.94
2023-02-05T21:12:09.516Z,102803.50
2023-02-05T21:14:37.060Z,102800.03
2023-02-05T21:17:09.257Z,102798.44
2023-02-05T21:19:38.955Z,102800.28
2023-02-05T21:22:06.924Z,102805.34
2023-02-05T21:24:35.121Z,102802.00
2023-02-05T21:27:02.855Z,102808.22
2023-02-05T21:29:30.881Z,102806.25
2023-02-05T21:31:58.664Z,102808.72
2023-02-05T21:34:28.138Z,102805.94
2023-02-05T21:36:56.729Z,102815.53
2023-02-05T21:39:25.715Z,102817.50
2023-02-05T21:41:54.544Z,102824.66
2023-02-05T21:44:22.651Z,102821.03
2023-02-05T21:46:50.211Z,102831.25
2023-02-05T21:49:17.837Z,102834.78
2023-02-05T21:51:48.121Z,102833.13
2023-02-05T21:54:16.178Z,102835.78
2023-02-05T21:56:43.991Z,102839.28
2023-02-05T21:59:13.038Z,102834.16
2023-02-05T22:01:42.317Z,102837.50
2023-02-05T22:04:16.016Z,102835.78
2023-02-05T22:06:44.216Z,102841.16
2023-02-05T22:09:14.181Z,102839.50
2023-02-05T22:11:42.510Z,102842.16
2023-02-05T22:14:14.346Z,102848.09
2023-02-05T22:16:43.124Z,102848.13
2023-02-05T22:19:11.156Z,102846.38
2023-02-05T22:21:41.885Z,102847.97
2023-02-05T22:24:15.782Z,102857.38
2023-02-05T22:26:45.068Z,102849.50
2023-02-05T22:29:16.016Z,102849.44
2023-02-05T22:31:44.873Z,102850.25
2023-02-05T22:34:13.128Z,102848.56
2023-02-05T22:36:41.380Z,102857.16
2023-02-05T22:39:09.433Z,102866.84
2023-02-05T22:41:39.673Z,102871.44
2023-02-05T22:44:09.863Z,102862.06
2023-02-05T22:46:40.489Z,102869.75
2023-02-05T22:49:08.573Z,102879.38
2023-02-05T22:51:39.277Z,102880.38
2023-02-05T22:54:08.533Z,102881.34
2023-02-05T22:56:37.041Z,102874.50
2023-02-05T22:59:05.040Z,102874.56
2023-02-05T23:01:35.052Z,102878.03
2023-02-05T23:04:04.805Z,102891.75
2023-02-05T23:06:41.780Z,102888.38
2023-02-05T23:09:16.626Z,102881.47
2023-02-05T23:11:46.026Z,102889.13
2023-02-05T23:14:15.941Z,102888.16
2023-02-05T23:16:45.443Z,102889.16
2023-02-05T23:19:16.498Z,102895.13
2023-02-05T23:21:45.684Z,102894.13
2023-02-05T23:24:13.379Z,102894.19
2023-02-05T23:26:44.569Z,102900.97
2023-02-05T23:29:17.791Z,102900.91
2023-02-05T23:31:45.718Z,102909.53
2023-02-05T23:34:13.835Z,102912.31
2023-02-05T23:36:41.831Z,102903.53
2023-02-05T23:39:10.203Z,102902.53
2023-02-05T23:41:40.173Z,102904.25
2023-02-05T23:44:12.736Z,102898.47
2023-02-05T23:46:42.547Z,102904.69
2023-02-05T23:49:11.061Z,102890.50
2023-02-05T23:51:39.452Z,102897.63
2023-02-05T23:54:09.329Z,102896.00
2023-02-05T23:56:37.433Z,102893.34
2023-02-05T23:59:06.698Z,102890.81
